createdAt,value
2018-04-01T00:00:30.319Z,20.95
2018-04-01T00:01:01.946Z,20.95
2018-04-01T00:01:33.572Z,20.93
2018-04-01T00:02:05.206Z,20.97
2018-04-01T00:02:36.830Z,20.97
2018-04-01T00:03:08.460Z,20.98
2018-04-01T00:03:40.093Z,20.97
2018-04-01T00:04:11.718Z,20.96
2018-04-01T00:04:43.342Z,20.93
2018-04-01T00:05:14.967Z,20.95
2018-04-01T00:05:46.666Z,20.97
2018-04-01T00:06:18.294Z,20.96
2018-04-01T00:06:49.923Z,20.98
2018-04-01T00:07:21.550Z,20.96
2018-04-01T00:07:53.170Z,20.94
2018-04-01T00:08:24.790Z,20.94
2018-04-01T00:08:56.418Z,20.94
2018-04-01T00:09:28.042Z,20.94
2018-04-01T00:09:59.666Z,20.94
2018-04-01T00:10:31.294Z,20.95
2018-04-01T00:11:02.983Z,20.94
2018-04-01T00:11:34.610Z,20.95
2018-04-01T00:12:06.238Z,20.96
2018-04-01T00:12:37.866Z,20.95
2018-04-01T00:13:09.498Z,20.94
2018-04-01T00:13:41.131Z,20.92
2018-04-01T00:14:12.765Z,20.97
2018-04-01T00:14:44.391Z,20.97
2018-04-01T00:15:16.035Z,21.00
2018-04-01T00:15:47.666Z,20.99
2018-04-01T00:16:19.361Z,20.99
2018-04-01T00:16:50.990Z,21.02
2018-04-01T00:17:22.626Z,21.01
2018-04-01T00:17:54.254Z,21.05
2018-04-01T00:18:25.892Z,21.13
2018-04-01T00:18:57.518Z,21.14
2018-04-01T00:19:29.146Z,21.10
2018-04-01T00:20:00.774Z,21.09
2018-04-01T00:20:32.402Z,21.07
2018-04-01T00:21:04.026Z,21.05
2018-04-01T00:21:35.740Z,21.07
2018-04-01T00:22:07.370Z,21.07
2018-04-01T00:22:38.994Z,21.07
2018-04-01T00:23:10.623Z,21.07
2018-04-01T00:23:42.250Z,21.07
2018-04-01T00:24:13.873Z,21.12
2018-04-01T00:24:45.498Z,21.13
2018-04-01T00:25:17.128Z,21.15
2018-04-01T00:25:48.758Z,21.18
2018-04-01T00:26:20.387Z,21.17
2018-04-01T00:26:52.082Z,21.21
2018-04-01T00:27:23.706Z,21.19
2018-04-01T00:27:55.332Z,21.20
2018-04-01T00:28:26.966Z,21.21
2018-04-01T00:28:58.589Z,21.25
2018-04-01T00:29:30.210Z,21.26
2018-04-01T00:30:01.843Z,21.30
2018-04-01T00:30:33.474Z,21.32
2018-04-01T00:31:05.101Z,21.35
2018-04-01T00:31:36.729Z,21.35
2018-04-01T00:32:08.422Z,21.36
2018-04-01T00:32:40.054Z,21.37
2018-04-01T00:33:11.683Z,21.32
2018-04-01T00:33:43.315Z,21.37
2018-04-01T00:34:14.938Z,21.36
2018-04-01T00:34:46.562Z,21.36
2018-04-01T00:35:18.190Z,21.32
2018-04-01T00:35:49.814Z,21.32
2018-04-01T00:36:21.438Z,21.32
2018-04-01T00:36:53.066Z,21.34
2018-04-01T00:37:24.690Z,21.34
2018-04-01T00:37:56.314Z,21.32
2018-04-01T00:38:27.938Z,21.33
2018-04-01T00:38:59.566Z,21.34
2018-04-01T00:39:31.199Z,21.34
2018-04-01T00:40:02.830Z,21.31
2018-04-01T00:40:34.454Z,21.30
2018-04-01T00:41:06.082Z,21.29
2018-04-01T00:41:37.713Z,21.27
2018-04-01T00:42:09.386Z,21.27
2018-04-01T00:42:41.078Z,21.27
2018-04-01T00:43:12.707Z,21.29
2018-04-01T00:43:44.339Z,21.27
2018-04-01T00:44:15.970Z,21.25
2018-04-01T00:44:47.603Z,21.28
2018-04-01T00:45:19.225Z,21.25
2018-04-01T00:45:50.849Z,21.21
2018-04-01T00:46:22.474Z,21.20
2018-04-01T00:46:54.098Z,21.21
2018-04-01T00:47:25.759Z,21.21
2018-04-01T00:47:57.455Z,21.21
2018-04-01T00:48:29.082Z,21.17
2018-04-01T00:49:00.706Z,21.19
2018-04-01T00:49:32.339Z,21.21
2018-04-01T00:50:04.059Z,21.20
2018-04-01T00:50:35.681Z,21.19
2018-04-01T00:51:07.310Z,21.20
2018-04-01T00:51:38.939Z,21.19
2018-04-01T00:52:10.563Z,21.18
2018-04-01T00:52:42.191Z,21.18
2018-04-01T00:53:13.890Z,21.17
2018-04-01T00:53:45.514Z,21.15
2018-04-01T00:54:17.138Z,21.16
2018-04-01T00:54:48.774Z,21.13
2018-04-01T00:55:20.403Z,21.12
2018-04-01T00:55:52.035Z,21.11
2018-04-01T00:56:23.661Z,21.12
2018-04-01T00:56:55.285Z,21.13
2018-04-01T00:57:26.913Z,21.10
2018-04-01T00:57:58.543Z,21.10
2018-04-01T00:58:30.236Z,21.08
2018-04-01T00:59:01.868Z,21.06
2018-04-01T00:59:33.502Z,21.07
2018-04-01T01:00:05.127Z,21.08
2018-04-01T01:00:36.763Z,21.10
2018-04-01T01:01:08.394Z,21.08
2018-04-01T01:01:40.023Z,21.06
2018-04-01T01:02:11.646Z,21.06
2018-04-01T01:02:43.275Z,21.08
2018-04-01T01:03:14.907Z,21.07
2018-04-01T01:03:46.599Z,21.06
2018-04-01T01:04:18.221Z,21.05
2018-04-01T01:04:49.858Z,21.06
2018-04-01T01:05:21.490Z,21.06
2018-04-01T01:05:53.114Z,21.09
2018-04-01T01:06:24.741Z,21.09
2018-04-01T01:06:56.366Z,21.05
2018-04-01T01:07:27.994Z,21.06
2018-04-01T01:07:59.626Z,21.03
2018-04-01T01:08:31.249Z,21.03
2018-04-01T01:09:02.950Z,21.04
2018-04-01T01:09:34.578Z,21.05
2018-04-01T01:10:06.204Z,21.05
2018-04-01T01:10:37.830Z,21.06
2018-04-01T01:11:09.454Z,21.06
2018-04-01T01:11:41.078Z,21.04
2018-04-01T01:12:12.706Z,21.07
2018-04-01T01:12:44.334Z,21.06
2018-04-01T01:13:15.962Z,21.06
2018-04-01T01:13:47.585Z,21.06
2018-04-01T01:14:19.279Z,21.07
2018-04-01T01:14:50.906Z,21.08
2018-04-01T01:15:22.534Z,21.07
2018-04-01T01:15:54.163Z,21.06
2018-04-01T01:16:25.804Z,21.06
2018-04-01T01:16:57.434Z,21.05
2018-04-01T01:17:29.062Z,21.03
2018-04-01T01:18:00.692Z,21.07
2018-04-01T01:18:32.352Z,21.05
2018-04-01T01:19:03.983Z,21.04
2018-04-01T01:19:35.695Z,21.04
2018-04-01T01:20:07.323Z,21.02
2018-04-01T01:20:38.945Z,21.02
2018-04-01T01:21:10.570Z,21.00
2018-04-01T01:21:42.212Z,20.98
2018-04-01T01:22:13.838Z,20.99
2018-04-01T01:22:45.466Z,21.01
2018-04-01T01:23:17.094Z,21.00
2018-04-01T01:23:48.722Z,20.97
2018-04-01T01:24:20.351Z,20.98
2018-04-01T01:24:52.050Z,20.96
2018-04-01T01:25:23.679Z,20.95
2018-04-01T01:25:55.312Z,20.97
2018-04-01T01:26:26.942Z,20.96
2018-04-01T01:26:58.566Z,20.95
2018-04-01T01:27:30.199Z,20.95
2018-04-01T01:28:01.830Z,20.91
2018-04-01T01:28:33.454Z,20.89
2018-04-01T01:29:05.078Z,20.91
2018-04-01T01:29:36.715Z,20.91
2018-04-01T01:30:08.426Z,20.91
2018-04-01T01:30:40.050Z,20.89
2018-04-01T01:31:11.674Z,20.90
2018-04-01T01:31:43.301Z,20.88
2018-04-01T01:32:14.970Z,20.91
2018-04-01T01:32:46.587Z,20.93
2018-04-01T01:33:18.213Z,20.95
2018-04-01T01:33:49.839Z,20.93
2018-04-01T01:34:21.462Z,20.94
2018-04-01T01:34:53.081Z,20.93
2018-04-01T01:35:24.782Z,20.93
2018-04-01T01:35:56.410Z,20.92
2018-04-01T01:36:28.212Z,20.95
2018-04-01T01:36:59.806Z,20.96
2018-04-01T01:37:31.429Z,20.98
2018-04-01T01:38:03.058Z,20.98
2018-04-01T01:38:34.687Z,20.99
2018-04-01T01:39:06.314Z,20.98
2018-04-01T01:39:37.937Z,20.99
2018-04-01T01:40:09.567Z,21.00
2018-04-01T01:40:41.267Z,21.03
2018-04-01T01:41:12.890Z,21.01
2018-04-01T01:41:44.590Z,21.04
2018-04-01T01:42:16.214Z,21.02
2018-04-01T01:42:47.849Z,21.01
2018-04-01T01:43:19.483Z,21.01
2018-04-01T01:43:51.182Z,21.01
2018-04-01T01:44:22.805Z,21.00
2018-04-01T01:44:54.430Z,21.06
2018-04-01T01:45:26.054Z,21.08
2018-04-01T01:45:57.683Z,21.06
2018-04-01T01:46:29.314Z,21.09
2018-04-01T01:47:00.978Z,21.09
2018-04-01T01:47:32.605Z,21.13
2018-04-01T01:48:04.230Z,21.15
2018-04-01T01:48:35.854Z,21.16
2018-04-01T01:49:07.513Z,21.19
2018-04-01T01:49:39.142Z,21.18
2018-04-01T01:50:10.767Z,21.18
2018-04-01T01:50:42.399Z,21.20
2018-04-01T01:51:14.090Z,21.20
2018-04-01T01:51:45.723Z,21.17
2018-04-01T01:52:17.362Z,21.19
2018-04-01T01:52:48.991Z,21.23
2018-04-01T01:53:20.621Z,21.23
2018-04-01T01:53:52.251Z,21.25
2018-04-01T01:54:23.882Z,21.23
2018-04-01T01:54:55.505Z,21.25
2018-04-01T01:55:27.135Z,21.23
2018-04-01T01:55:58.774Z,21.27
2018-04-01T01:56:30.482Z,21.24
2018-04-01T01:57:02.126Z,21.22
2018-04-01T01:57:33.754Z,21.21
2018-04-01T01:58:05.406Z,21.23
2018-04-01T01:58:37.030Z,21.21
2018-04-01T01:59:08.674Z,21.20
2018-04-01T01:59:40.299Z,21.17
2018-04-01T02:00:11.949Z,21.20
2018-04-01T02:00:43.574Z,21.26
2018-04-01T02:01:15.201Z,21.28
2018-04-01T02:01:46.902Z,21.26
2018-04-01T02:02:18.526Z,21.27
2018-04-01T02:02:50.151Z,21.30
2018-04-01T02:03:21.783Z,21.27
2018-04-01T02:03:53.405Z,21.24
2018-04-01T02:04:25.060Z,21.25
2018-04-01T02:04:56.691Z,21.25
2018-04-01T02:05:28.329Z,21.23
2018-04-01T02:05:59.950Z,21.23
2018-04-01T02:06:31.578Z,21.20
2018-04-01T02:07:03.279Z,21.20
2018-04-01T02:07:34.910Z,21.19
2018-04-01T02:08:06.535Z,21.18
2018-04-01T02:08:38.169Z,21.17
2018-04-01T02:09:09.795Z,21.20
2018-04-01T02:09:41.419Z,21.19
2018-04-01T02:10:13.050Z,21.17
2018-04-01T02:10:44.681Z,21.17
2018-04-01T02:11:16.323Z,21.16
2018-04-01T02:11:47.948Z,21.17
2018-04-01T02:12:19.638Z,21.17
2018-04-01T02:12:51.275Z,21.15
2018-04-01T02:13:22.910Z,21.13
2018-04-01T02:13:54.539Z,21.10
2018-04-01T02:14:26.162Z,21.12
2018-04-01T02:14:57.786Z,21.11
2018-04-01T02:15:29.410Z,21.09
2018-04-01T02:16:01.039Z,21.08
2018-04-01T02:16:32.662Z,21.11
2018-04-01T02:17:04.290Z,21.12
2018-04-01T02:17:36.034Z,21.10
2018-04-01T02:18:07.658Z,21.10
2018-04-01T02:18:39.287Z,21.07
2018-04-01T02:19:10.918Z,21.07
2018-04-01T02:19:42.542Z,21.10
2018-04-01T02:20:14.166Z,21.11
2018-04-01T02:20:45.793Z,21.08
2018-04-01T02:21:17.418Z,21.05
2018-04-01T02:21:49.065Z,21.07
2018-04-01T02:22:20.695Z,21.06
2018-04-01T02:22:52.326Z,21.05
2018-04-01T02:23:23.954Z,21.03
2018-04-01T02:23:55.598Z,21.03
2018-04-01T02:24:27.251Z,21.04
2018-04-01T02:24:58.883Z,21.05
2018-04-01T02:25:30.510Z,21.01
2018-04-01T02:26:02.134Z,21.04
2018-04-01T02:26:33.764Z,21.05
2018-04-01T02:27:05.386Z,21.05
2018-04-01T02:27:37.010Z,21.01
2018-04-01T02:28:08.702Z,21.05
2018-04-01T02:28:40.335Z,21.08
2018-04-01T02:29:11.966Z,21.07
2018-04-01T02:29:43.598Z,21.05
2018-04-01T02:30:15.227Z,21.04
2018-04-01T02:30:46.864Z,21.01
2018-04-01T02:31:18.573Z,21.03
2018-04-01T02:31:50.146Z,21.06
2018-04-01T02:32:21.784Z,21.06
2018-04-01T02:32:53.411Z,21.05
2018-04-01T02:33:25.107Z,21.04
2018-04-01T02:33:56.730Z,21.06
2018-04-01T02:34:28.365Z,21.04
2018-04-01T02:35:00.008Z,21.03
2018-04-01T02:35:31.651Z,21.03
2018-04-01T02:36:03.282Z,21.02
2018-04-01T02:36:34.910Z,21.01
2018-04-01T02:37:06.538Z,21.02
2018-04-01T02:37:38.172Z,21.03
2018-04-01T02:38:09.811Z,21.04
2018-04-01T02:38:41.512Z,21.04
2018-04-01T02:39:13.144Z,21.03
2018-04-01T02:39:44.802Z,21.01
2018-04-01T02:40:16.426Z,20.98
2018-04-01T02:40:48.055Z,20.97
2018-04-01T02:41:19.683Z,20.98
2018-04-01T02:41:51.319Z,20.88
2018-04-01T02:42:22.949Z,20.98
2018-04-01T02:42:54.584Z,20.97
2018-04-01T02:43:26.213Z,20.95
2018-04-01T02:43:57.909Z,20.95
2018-04-01T02:44:29.538Z,20.95
2018-04-01T02:45:01.163Z,20.96
2018-04-01T02:45:32.790Z,20.94
2018-04-01T02:46:04.423Z,20.93
2018-04-01T02:46:36.072Z,20.92
2018-04-01T02:47:07.709Z,20.91
2018-04-01T02:47:39.346Z,20.91
2018-04-01T02:48:10.969Z,20.94
2018-04-01T02:48:42.594Z,20.95
2018-04-01T02:49:14.294Z,20.94
2018-04-01T02:49:45.954Z,20.95
2018-04-01T02:50:17.578Z,20.95
2018-04-01T02:50:49.206Z,20.93
2018-04-01T02:51:20.835Z,20.95
2018-04-01T02:51:52.471Z,20.95
2018-04-01T02:52:24.097Z,20.97
2018-04-01T02:52:55.729Z,20.97
2018-04-01T02:53:27.360Z,20.98
2018-04-01T02:53:58.986Z,21.00
2018-04-01T02:54:30.679Z,20.95
2018-04-01T02:55:02.302Z,20.99
2018-04-01T02:55:33.934Z,21.00
2018-04-01T02:56:05.558Z,21.00
2018-04-01T02:56:37.191Z,21.03
2018-04-01T02:57:08.823Z,21.05
2018-04-01T02:57:40.446Z,21.04
2018-04-01T02:58:12.074Z,21.04
2018-04-01T02:58:43.698Z,21.05
2018-04-01T02:59:15.323Z,21.10
2018-04-01T02:59:47.018Z,21.10
2018-04-01T03:00:18.702Z,21.11
2018-04-01T03:00:50.326Z,21.14
2018-04-01T03:01:21.956Z,21.16
2018-04-01T03:01:53.584Z,21.20
2018-04-01T03:02:25.210Z,21.20
2018-04-01T03:02:56.844Z,21.19
2018-04-01T03:03:28.466Z,21.20
2018-04-01T03:04:00.104Z,21.21
2018-04-01T03:04:31.814Z,21.21
2018-04-01T03:05:03.478Z,21.23
2018-04-01T03:05:35.110Z,21.24
2018-04-01T03:06:06.738Z,21.28
2018-04-01T03:06:38.358Z,21.28
2018-04-01T03:07:09.991Z,21.28
2018-04-01T03:07:41.622Z,21.30
2018-04-01T03:08:13.256Z,21.31
2018-04-01T03:08:44.889Z,21.34
2018-04-01T03:09:16.518Z,21.35
2018-04-01T03:09:48.143Z,21.37
2018-04-01T03:10:19.830Z,21.35
2018-04-01T03:10:51.460Z,21.40
2018-04-01T03:11:23.086Z,21.41
2018-04-01T03:11:54.714Z,21.39
2018-04-01T03:12:26.358Z,21.36
2018-04-01T03:12:57.982Z,21.39
2018-04-01T03:13:29.606Z,21.39
2018-04-01T03:14:01.240Z,21.36
2018-04-01T03:14:32.865Z,21.38
2018-04-01T03:15:04.498Z,21.37
2018-04-01T03:15:36.197Z,21.39
2018-04-01T03:16:07.827Z,21.37
2018-04-01T03:16:39.454Z,21.38
2018-04-01T03:17:11.079Z,21.37
2018-04-01T03:17:42.706Z,21.35
2018-04-01T03:18:14.325Z,21.35
2018-04-01T03:18:45.945Z,21.35
2018-04-01T03:19:17.566Z,21.34
2018-04-01T03:19:49.192Z,21.34
2018-04-01T03:20:20.820Z,21.31
2018-04-01T03:20:52.514Z,21.30
2018-04-01T03:21:24.142Z,21.30
2018-04-01T03:21:55.779Z,21.29
2018-04-01T03:22:27.403Z,21.26
2018-04-01T03:22:59.027Z,21.23
2018-04-01T03:23:30.654Z,21.21
2018-04-01T03:24:02.283Z,21.25
2018-04-01T03:24:33.906Z,21.26
2018-04-01T03:25:05.531Z,21.22
2018-04-01T03:25:37.158Z,21.24
2018-04-01T03:26:08.858Z,21.21
2018-04-01T03:26:40.491Z,21.20
2018-04-01T03:27:12.114Z,21.17
2018-04-01T03:27:43.742Z,21.15
2018-04-01T03:28:15.367Z,21.16
2018-04-01T03:28:46.999Z,21.16
2018-04-01T03:29:18.621Z,21.17
2018-04-01T03:29:50.255Z,21.16
2018-04-01T03:30:21.879Z,21.15
2018-04-01T03:30:53.507Z,21.16
2018-04-01T03:31:25.139Z,21.14
2018-04-01T03:31:56.771Z,21.11
2018-04-01T03:32:28.394Z,21.10
2018-04-01T03:33:00.019Z,21.09
2018-04-01T03:33:31.651Z,21.10
2018-04-01T03:34:03.282Z,21.08
2018-04-01T03:34:34.912Z,21.07
2018-04-01T03:35:06.534Z,21.06
2018-04-01T03:35:38.162Z,21.06
2018-04-01T03:36:09.790Z,21.07
2018-04-01T03:36:41.479Z,21.05
2018-04-01T03:37:13.109Z,21.06
2018-04-01T03:37:44.751Z,21.07
2018-04-01T03:38:16.377Z,21.06
2018-04-01T03:38:48.006Z,21.07
2018-04-01T03:39:19.635Z,21.06
2018-04-01T03:39:51.268Z,21.05
2018-04-01T03:40:22.893Z,21.05
2018-04-01T03:40:54.522Z,21.03
2018-04-01T03:41:26.148Z,21.02
2018-04-01T03:41:57.842Z,21.03
2018-04-01T03:42:29.477Z,21.04
2018-04-01T03:43:01.111Z,21.04
2018-04-01T03:43:32.733Z,21.04
2018-04-01T03:44:04.366Z,21.03
2018-04-01T03:44:35.990Z,21.04
2018-04-01T03:45:07.619Z,21.03
2018-04-01T03:45:39.251Z,21.04
2018-04-01T03:46:10.890Z,21.04
2018-04-01T03:46:42.514Z,21.04
2018-04-01T03:47:14.207Z,21.03
2018-04-01T03:47:45.834Z,21.04
2018-04-01T03:48:17.474Z,21.03
2018-04-01T03:48:49.102Z,21.03
2018-04-01T03:49:20.762Z,21.04
2018-04-01T03:49:52.391Z,21.04
2018-04-01T03:50:24.019Z,21.04
2018-04-01T03:50:55.674Z,21.02
2018-04-01T03:51:27.303Z,21.01
2018-04-01T03:51:58.930Z,21.01
2018-04-01T03:52:30.618Z,21.00
2018-04-01T03:53:02.248Z,21.01
2018-04-01T03:53:33.870Z,21.01
2018-04-01T03:54:05.497Z,21.00
2018-04-01T03:54:37.122Z,20.98
2018-04-01T03:55:08.759Z,20.95
2018-04-01T03:55:40.387Z,20.93
2018-04-01T03:56:12.017Z,20.94
2018-04-01T03:56:43.646Z,20.90
2018-04-01T03:57:15.270Z,20.88
2018-04-01T03:57:46.970Z,20.87
2018-04-01T03:58:18.603Z,20.88
2018-04-01T03:58:50.233Z,20.85
2018-04-01T03:59:21.863Z,20.86
2018-04-01T03:59:53.494Z,20.86
2018-04-01T04:00:25.144Z,20.85
2018-04-01T04:00:56.781Z,20.86
2018-04-01T04:01:28.406Z,20.86
2018-04-01T04:02:00.035Z,20.87
2018-04-01T04:02:31.674Z,20.90
2018-04-01T04:03:03.381Z,20.89
2018-04-01T04:03:35.030Z,20.89
2018-04-01T04:04:06.657Z,20.90
2018-04-01T04:04:38.310Z,20.88
2018-04-01T04:05:09.954Z,20.87
2018-04-01T04:05:41.599Z,20.85
2018-04-01T04:06:13.242Z,20.87
2018-04-01T04:06:44.891Z,20.87
2018-04-01T04:07:16.525Z,20.85
2018-04-01T04:07:48.175Z,20.85
2018-04-01T04:08:19.806Z,20.83
2018-04-01T04:08:51.447Z,20.84
2018-04-01T04:09:23.071Z,20.85
2018-04-01T04:09:54.702Z,20.85
2018-04-01T04:10:26.326Z,20.87
2018-04-01T04:10:57.949Z,20.90
2018-04-01T04:11:29.574Z,20.87
2018-04-01T04:12:01.206Z,20.88
2018-04-01T04:12:32.833Z,20.90
2018-04-01T04:13:04.454Z,20.94
2018-04-01T04:13:36.318Z,20.95
2018-04-01T04:14:07.943Z,20.99
2018-04-01T04:14:39.574Z,21.01
2018-04-01T04:15:11.202Z,21.05
2018-04-01T04:15:42.833Z,21.06
2018-04-01T04:16:14.462Z,21.10
2018-04-01T04:16:46.090Z,21.09
2018-04-01T04:17:17.720Z,21.13
2018-04-01T04:17:49.346Z,21.17
2018-04-01T04:18:20.970Z,21.17
2018-04-01T04:18:52.662Z,21.19
2018-04-01T04:19:24.286Z,21.18
2018-04-01T04:19:55.919Z,21.19
2018-04-01T04:20:27.550Z,21.18
2018-04-01T04:20:59.178Z,21.21
2018-04-01T04:21:30.807Z,21.26
2018-04-01T04:22:02.439Z,21.24
2018-04-01T04:22:34.066Z,21.24
2018-04-01T04:23:06.739Z,21.25
2018-04-01T04:23:38.363Z,21.23
2018-04-01T04:24:10.062Z,21.20
2018-04-01T04:24:41.686Z,21.26
2018-04-01T04:25:13.310Z,21.27
2018-04-01T04:25:44.938Z,21.32
2018-04-01T04:26:16.570Z,21.34
2018-04-01T04:26:48.197Z,21.33
2018-04-01T04:27:19.849Z,21.36
2018-04-01T04:27:51.474Z,21.37
2018-04-01T04:28:23.097Z,21.37
2018-04-01T04:28:54.722Z,21.37
2018-04-01T04:29:26.413Z,21.38
2018-04-01T04:29:58.054Z,21.39
2018-04-01T04:30:29.682Z,21.39
2018-04-01T04:31:01.307Z,21.39
2018-04-01T04:31:32.934Z,21.41
2018-04-01T04:32:04.558Z,21.37
2018-04-01T04:32:36.178Z,21.34
2018-04-01T04:33:07.802Z,21.37
2018-04-01T04:33:39.430Z,21.38
2018-04-01T04:34:11.125Z,21.41
2018-04-01T04:34:42.822Z,21.42
2018-04-01T04:35:14.445Z,21.45
2018-04-01T04:35:46.070Z,21.45
2018-04-01T04:36:17.698Z,21.40
2018-04-01T04:36:49.322Z,21.37
2018-04-01T04:37:20.951Z,21.38
2018-04-01T04:37:52.575Z,21.38
2018-04-01T04:38:24.202Z,21.38
2018-04-01T04:38:55.826Z,21.38
2018-04-01T04:39:27.450Z,21.35
2018-04-01T04:39:59.139Z,21.34
2018-04-01T04:40:30.762Z,21.35
2018-04-01T04:41:02.394Z,21.32
2018-04-01T04:41:34.026Z,21.29
2018-04-01T04:42:05.686Z,21.28
2018-04-01T04:42:37.309Z,21.25
2018-04-01T04:43:08.935Z,21.25
2018-04-01T04:43:40.591Z,21.22
2018-04-01T04:44:12.218Z,21.22
2018-04-01T04:44:43.850Z,21.22
2018-04-01T04:45:15.474Z,21.20
2018-04-01T04:45:47.102Z,21.19
2018-04-01T04:46:18.726Z,21.18
2018-04-01T04:46:50.351Z,21.22
2018-04-01T04:47:21.974Z,21.21
2018-04-01T04:47:53.597Z,21.16
2018-04-01T04:48:25.222Z,21.16
2018-04-01T04:48:56.849Z,21.16
2018-04-01T04:49:28.474Z,21.17
2018-04-01T04:50:00.166Z,21.17
2018-04-01T04:50:31.832Z,21.16
2018-04-01T04:51:03.457Z,21.16
2018-04-01T04:51:35.082Z,21.15
2018-04-01T04:52:06.710Z,21.14
2018-04-01T04:52:38.336Z,21.13
2018-04-01T04:53:09.958Z,21.11
2018-04-01T04:53:41.587Z,21.09
2018-04-01T04:54:13.214Z,21.12
2018-04-01T04:54:44.842Z,21.13
2018-04-01T04:55:16.549Z,21.07
2018-04-01T04:55:48.193Z,21.06
2018-04-01T04:56:19.822Z,21.07
2018-04-01T04:56:51.445Z,21.04
2018-04-01T04:57:23.074Z,21.01
2018-04-01T04:57:54.704Z,20.99
2018-04-01T04:58:26.354Z,21.06
2018-04-01T04:58:57.978Z,21.06
2018-04-01T04:59:29.615Z,21.07
2018-04-01T05:00:01.248Z,21.06
2018-04-01T05:00:32.938Z,21.06
2018-04-01T05:01:04.570Z,21.06
2018-04-01T05:01:36.199Z,21.04
2018-04-01T05:02:07.836Z,21.04
2018-04-01T05:02:39.494Z,21.06
2018-04-01T05:03:11.118Z,21.06
2018-04-01T05:03:42.746Z,21.07
2018-04-01T05:04:14.370Z,21.03
2018-04-01T05:04:45.998Z,21.02
2018-04-01T05:05:17.622Z,20.99
2018-04-01T05:05:49.324Z,20.97
2018-04-01T05:06:20.950Z,20.98
2018-04-01T05:06:52.578Z,20.96
2018-04-01T05:07:24.206Z,20.97
2018-04-01T05:07:55.834Z,20.98
2018-04-01T05:08:27.464Z,20.97
2018-04-01T05:08:59.094Z,20.93
2018-04-01T05:09:30.727Z,20.94
2018-04-01T05:10:02.359Z,20.92
2018-04-01T05:10:34.092Z,20.91
2018-04-01T05:11:05.791Z,20.90
2018-04-01T05:11:37.418Z,20.91
2018-04-01T05:12:09.050Z,20.88
2018-04-01T05:12:40.678Z,20.90
2018-04-01T05:13:12.302Z,20.92
2018-04-01T05:13:43.925Z,20.92
2018-04-01T05:14:15.554Z,20.91
2018-04-01T05:14:47.178Z,20.90
2018-04-01T05:15:18.811Z,20.85
2018-04-01T05:15:50.437Z,20.89
2018-04-01T05:16:22.126Z,20.88
2018-04-01T05:16:53.754Z,20.88
2018-04-01T05:17:25.383Z,20.88
2018-04-01T05:17:57.015Z,20.89
2018-04-01T05:18:28.637Z,20.88
2018-04-01T05:19:00.262Z,20.85
2018-04-01T05:19:31.904Z,20.86
2018-04-01T05:20:03.537Z,20.85
2018-04-01T05:20:35.169Z,20.87
2018-04-01T05:21:06.790Z,20.87
2018-04-01T05:21:38.485Z,20.86
2018-04-01T05:22:10.126Z,20.86
2018-04-01T05:22:41.762Z,20.87
2018-04-01T05:23:13.403Z,20.85
2018-04-01T05:23:45.038Z,20.82
2018-04-01T05:24:16.671Z,20.79
2018-04-01T05:24:48.293Z,20.79
2018-04-01T05:25:19.914Z,20.81
2018-04-01T05:25:51.538Z,20.83
2018-04-01T05:26:23.158Z,20.83
2018-04-01T05:26:54.782Z,20.82
2018-04-01T05:27:26.406Z,20.81
2018-04-01T05:27:58.038Z,20.83
2018-04-01T05:28:29.662Z,20.84
2018-04-01T05:29:01.287Z,20.85
2018-04-01T05:29:32.918Z,20.86
2018-04-01T05:30:04.548Z,20.85
2018-04-01T05:30:36.178Z,20.85
2018-04-01T05:31:07.803Z,20.87
2018-04-01T05:31:39.436Z,20.88
2018-04-01T05:32:11.135Z,20.89
2018-04-01T05:32:42.763Z,20.89
2018-04-01T05:33:14.399Z,20.89
2018-04-01T05:33:46.026Z,20.90
2018-04-01T05:34:17.654Z,20.93
2018-04-01T05:34:49.278Z,20.94
2018-04-01T05:35:20.907Z,20.95
2018-04-01T05:35:52.546Z,20.95
2018-04-01T05:36:24.174Z,21.00
2018-04-01T05:36:55.803Z,21.01
2018-04-01T05:37:27.499Z,21.00
2018-04-01T05:37:59.126Z,21.01
2018-04-01T05:38:30.752Z,21.04
2018-04-01T05:39:02.383Z,21.04
2018-04-01T05:39:34.006Z,21.06
2018-04-01T05:40:05.634Z,21.07
2018-04-01T05:40:37.263Z,21.10
2018-04-01T05:41:08.886Z,20.98
2018-04-01T05:41:40.509Z,21.21
2018-04-01T05:42:12.133Z,21.27
2018-04-01T05:42:43.840Z,21.29
2018-04-01T05:43:15.486Z,21.31
2018-04-01T05:43:47.114Z,21.31
2018-04-01T05:44:18.742Z,21.34
2018-04-01T05:44:50.367Z,21.35
2018-04-01T05:45:21.999Z,21.30
2018-04-01T05:45:53.626Z,21.31
2018-04-01T05:46:25.250Z,21.34
2018-04-01T05:46:56.873Z,21.36
2018-04-01T05:47:28.503Z,21.36
2018-04-01T05:48:00.206Z,21.35
2018-04-01T05:48:31.851Z,21.35
2018-04-01T05:49:03.474Z,21.36
2018-04-01T05:49:35.108Z,21.35
2018-04-01T05:50:06.738Z,21.37
2018-04-01T05:50:38.362Z,21.36
2018-04-01T05:51:09.986Z,21.40
2018-04-01T05:51:41.615Z,21.40
2018-04-01T05:52:13.246Z,21.42
2018-04-01T05:52:44.874Z,21.41
2018-04-01T05:53:16.570Z,21.41
2018-04-01T05:53:48.193Z,21.40
2018-04-01T05:54:19.822Z,21.40
2018-04-01T05:54:51.455Z,21.40
2018-04-01T05:55:23.081Z,21.39
2018-04-01T05:55:54.719Z,21.38
2018-04-01T05:56:26.350Z,21.41
2018-04-01T05:56:57.978Z,21.43
2018-04-01T05:57:29.602Z,21.40
2018-04-01T05:58:01.235Z,21.39
2018-04-01T05:58:32.938Z,21.39
2018-04-01T05:59:04.562Z,21.39
2018-04-01T05:59:36.186Z,21.38
2018-04-01T06:00:07.816Z,21.34
2018-04-01T06:00:39.443Z,21.35
2018-04-01T06:01:11.070Z,21.33
2018-04-01T06:01:42.693Z,21.31
2018-04-01T06:02:14.323Z,21.32
2018-04-01T06:02:45.993Z,21.28
2018-04-01T06:03:17.618Z,21.28
2018-04-01T06:03:49.316Z,21.28
2018-04-01T06:04:20.943Z,21.24
2018-04-01T06:04:52.569Z,21.22
2018-04-01T06:05:24.199Z,21.20
2018-04-01T06:05:55.826Z,21.19
2018-04-01T06:06:27.453Z,21.18
2018-04-01T06:06:59.074Z,21.17
2018-04-01T06:07:30.698Z,21.14
2018-04-01T06:08:02.330Z,21.11
2018-04-01T06:08:33.958Z,21.10
2018-04-01T06:09:05.614Z,21.09
2018-04-01T06:09:37.237Z,21.04
2018-04-01T06:10:08.866Z,21.05
2018-04-01T06:10:40.494Z,21.06
2018-04-01T06:11:12.117Z,21.04
2018-04-01T06:11:43.891Z,21.04
2018-04-01T06:12:15.542Z,21.05
2018-04-01T06:12:47.191Z,21.01
2018-04-01T06:13:18.822Z,21.01
2018-04-01T06:13:50.446Z,20.98
2018-04-01T06:14:22.075Z,21.02
2018-04-01T06:14:53.752Z,20.97
2018-04-01T06:15:25.507Z,20.96
2018-04-01T06:15:57.129Z,20.96
2018-04-01T06:16:28.762Z,20.97
2018-04-01T06:17:00.390Z,20.96
2018-04-01T06:17:32.017Z,20.94
2018-04-01T06:18:03.647Z,20.95
2018-04-01T06:18:35.274Z,20.93
2018-04-01T06:19:06.924Z,20.90
2018-04-01T06:19:38.558Z,20.87
2018-04-01T06:20:10.229Z,20.88
2018-04-01T06:20:41.866Z,20.88
2018-04-01T06:21:13.499Z,20.89
2018-04-01T06:21:45.134Z,20.91
2018-04-01T06:22:16.782Z,20.90
2018-04-01T06:22:48.414Z,20.93
2018-04-01T06:23:20.039Z,20.92
2018-04-01T06:23:51.663Z,20.89
2018-04-01T06:24:24.101Z,20.87
2018-04-01T06:24:55.722Z,20.87
2018-04-01T06:25:27.398Z,20.87
2018-04-01T06:25:59.023Z,20.84
2018-04-01T06:26:30.687Z,20.82
2018-04-01T06:27:02.704Z,20.81
2018-04-01T06:27:34.374Z,20.81
2018-04-01T06:28:05.999Z,20.79
2018-04-01T06:28:37.674Z,20.77
2018-04-01T06:29:09.298Z,20.77
2018-04-01T06:29:40.926Z,20.75
2018-04-01T06:30:12.593Z,20.73
2018-04-01T06:30:44.226Z,20.75
2018-04-01T06:31:15.849Z,20.74
2018-04-01T06:31:47.474Z,20.73
2018-04-01T06:32:19.110Z,20.71
2018-04-01T06:32:50.746Z,20.72
2018-04-01T06:33:22.370Z,20.71
2018-04-01T06:33:53.993Z,20.72
2018-04-01T06:34:25.671Z,20.73
2018-04-01T06:34:57.299Z,20.71
2018-04-01T06:35:28.922Z,20.72
2018-04-01T06:36:00.555Z,20.71
2018-04-01T06:36:32.192Z,20.73
2018-04-01T06:37:03.817Z,20.70
2018-04-01T06:37:35.438Z,20.71
2018-04-01T06:38:07.062Z,20.71
2018-04-01T06:38:38.694Z,20.67
2018-04-01T06:39:10.322Z,20.69
2018-04-01T06:39:42.006Z,20.69
2018-04-01T06:40:13.680Z,20.66
2018-04-01T06:40:45.306Z,20.68
2018-04-01T06:41:16.938Z,20.67
2018-04-01T06:41:48.567Z,20.67
2018-04-01T06:42:20.221Z,20.71
2018-04-01T06:42:51.850Z,20.75
2018-04-01T06:43:23.479Z,20.78
2018-04-01T06:43:55.103Z,20.79
2018-04-01T06:44:26.786Z,20.78
2018-04-01T06:44:59.396Z,20.77
2018-04-01T06:45:31.060Z,20.76
2018-04-01T06:46:02.687Z,20.73
2018-04-01T06:46:34.318Z,20.80
2018-04-01T06:47:05.943Z,20.81
2018-04-01T06:47:37.568Z,20.81